Accueil
METAR-TAF:

METAR-TAF

Aéroports :

Muskogee, Oklahoma, États-Unis

latitude: 35-39-25N, longitude: 095-21-35W, altitude: 185 m

Observation

Le bulletin a été fait il y a 18 minutes, à 02:29 UTC
Vent 22 kt de nord/nord-est avec des rafales jusqu'à 32 kt
Température 14°C
Humidité 94%
Pression 1013 hPa
Visibilité: 16.1 km
Quelques nuages à une hauteur de 2000 ft
Nuages épars à une hauteur de 2400 ft
Ciel couvert à une hauteur de 3700 ft
pluie faible

METAR: KMKO 280229Z AUTO 02022G32KT 10SM -RA FEW020 SCT024 OVC037 14/13 A2992 RMK AO2 PK WND 01039/0210 LTG DSNT SW P0000 T01440128

Heure: 21:47 (02:47 UTC)


TAF: absent

Observations et prévisions météorologiques de plus de 4000 aéroports (messages METAR et TAF).

Les stations disponibles sont représentées par des disques jaunes et rouges sur la carte.

Passer la souris dessus pour voir le nom de la station.

Cliquer dessus pour voir les observations et prévisions météorologiques.

Pour changer de carte: cliquez sur les boutons verts avec une croix noire pour zoomer, sur le bouton vert avec un tiret pour effectuer un zoom arrière, ou sur les flèches vertes pour les cartes adjacentes.


METAR-TAF: